Time;durP1;ratioP1;P1;durP2;ratioP2;P2;SDS_P1;SDS_P2;PMS_P1;PMS_P2;Temp;Humidity;BMP_temperature;BMP_pressure;BME280_temperature;BME280_humidity;BME280_pressure;Samples;Min_cycle;Max_cycle;Signal;HPM_P1;HPM_P2
2022/04/06 00:01:38;;;;;;;21.58;8.38;;;;;;;;;;5089567;27;20039;-75
2022/04/06 00:04:04;;;;;;;22.15;8.85;;;;;;;;;;5088479;28;20035;-76
2022/04/06 00:06:30;;;;;;;24.77;9.10;;;;;;;;;;5105125;27;20042;-77
2022/04/06 00:08:56;;;;;;;23.50;9.18;;;;;;;;;;5106628;27;20504;-77
2022/04/06 00:11:23;;;;;;;24.60;9.00;;;;;;;;;;5104664;27;20122;-78
2022/04/06 00:13:49;;;;;;;22.05;8.05;;;;;;;;;;5105085;27;20101;-76
2022/04/06 00:16:15;;;;;;;19.10;8.60;;;;;;;;;;5098062;28;20112;-77
2022/04/06 00:18:41;;;;;;;21.27;8.43;;;;;;;;;;5095355;28;20074;-77
2022/04/06 00:21:07;;;;;;;22.75;8.07;;;;;;;;;;5078443;28;20482;-78
2022/04/06 00:23:33;;;;;;;23.20;8.18;;;;;;;;;;5095229;28;20039;-76
2022/04/06 00:25:59;;;;;;;22.95;8.23;;;;;;;;;;5095148;28;20092;-78
2022/04/06 00:28:25;;;;;;;23.75;8.07;;;;;;;;;;5077271;28;20043;-77
2022/04/06 00:30:51;;;;;;;22.85;8.77;;;;;;;;;;5078590;28;20180;-76
2022/04/06 00:33:17;;;;;;;20.92;8.88;;;;;;;;;;5095029;28;20031;-77
2022/04/06 00:35:43;;;;;;;24.05;8.85;;;;;;;;;;5078409;28;20093;-78
2022/04/06 00:38:09;;;;;;;18.00;7.50;;;;;;;;;;5078565;28;20167;-78
2022/04/06 00:40:35;;;;;;;22.80;8.10;;;;;;;;;;5094661;28;20045;-76
2022/04/06 00:43:12;;;;;;;25.00;9.98;;;;;;;;;;5094438;28;20185;-78
2022/04/06 00:45:42;;;;;;;19.42;7.28;;;;;;;;;;5094634;28;20486;-77
2022/04/06 00:48:09;;;;;;;24.98;9.15;;;;;;;;;;5077977;28;20062;-73
2022/04/06 00:50:35;;;;;;;21.40;8.15;;;;;;;;;;5094962;28;20053;-76
2022/04/06 00:53:01;;;;;;;20.73;7.38;;;;;;;;;;5078135;28;20044;-77
2022/04/06 00:55:32;;;;;;;26.23;8.40;;;;;;;;;;5094659;28;20039;-77
2022/04/06 00:57:58;;;;;;;16.30;7.20;;;;;;;;;;5094990;28;20047;-72
2022/04/06 01:00:24;;;;;;;15.48;7.15;;;;;;;;;;5077698;28;20039;-77
2022/04/06 01:02:51;;;;;;;19.63;7.20;;;;;;;;;;5077581;28;20112;-73
2022/04/06 01:05:17;;;;;;;21.63;6.57;;;;;;;;;;5094426;28;20464;-77
2022/04/06 01:07:47;;;;;;;19.00;7.10;;;;;;;;;;5077819;28;20484;-76
2022/04/06 01:10:13;;;;;;;22.87;6.53;;;;;;;;;;5078088;28;20061;-76
2022/04/06 01:12:39;;;;;;;18.83;7.05;;;;;;;;;;5077574;28;20043;-74
2022/04/06 01:15:07;;;;;;;17.67;7.50;;;;;;;;;;5077710;28;20043;-73
2022/04/06 01:17:33;;;;;;;17.20;7.00;;;;;;;;;;5094276;28;20096;-74
2022/04/06 01:20:00;;;;;;;22.05;6.97;;;;;;;;;;5094143;28;20125;-72
2022/04/06 01:22:26;;;;;;;17.75;8.05;;;;;;;;;;5094032;28;20052;-74
2022/04/06 01:24:53;;;;;;;20.58;6.60;;;;;;;;;;5094250;28;20046;-72
2022/04/06 01:27:19;;;;;;;27.70;7.50;;;;;;;;;;5077082;28;20097;-75
2022/04/06 01:29:45;;;;;;;17.58;6.60;;;;;;;;;;5077558;28;20521;-76
2022/04/06 01:32:11;;;;;;;18.20;7.85;;;;;;;;;;5094236;28;20043;-78
2022/04/06 01:34:37;;;;;;;25.52;8.20;;;;;;;;;;5077186;28;20083;-73
2022/04/06 01:37:07;;;;;;;21.10;7.53;;;;;;;;;;5077049;28;20046;-73
2022/04/06 01:39:34;;;;;;;18.85;8.25;;;;;;;;;;5076729;28;20042;-77
2022/04/06 01:42:00;;;;;;;13.65;7.15;;;;;;;;;;5093336;28;20097;-77
2022/04/06 01:44:26;;;;;;;16.90;7.32;;;;;;;;;;5076861;28;20039;-75
2022/04/06 01:46:52;;;;;;;16.08;7.80;;;;;;;;;;5076980;28;20113;-71
2022/04/06 01:52:12;;;;;;;21.52;7.28;;;;;;;;;;5093719;28;20161;-73
2022/04/06 01:54:38;;;;;;;17.77;7.20;;;;;;;;;;5076898;28;20065;-78
2022/04/06 01:57:04;;;;;;;15.38;8.18;;;;;;;;;;5094006;28;20078;-75
2022/04/06 01:59:31;;;;;;;16.58;7.70;;;;;;;;;;5077063;28;20086;-75
2022/04/06 02:01:57;;;;;;;21.95;7.60;;;;;;;;;;5093518;28;20142;-77
2022/04/06 02:04:23;;;;;;;16.02;7.40;;;;;;;;;;5077126;28;20105;-72
2022/04/06 02:06:49;;;;;;;17.42;6.82;;;;;;;;;;5076624;28;20040;-75
2022/04/06 02:09:15;;;;;;;20.67;7.20;;;;;;;;;;5076869;28;20035;-73
2022/04/06 02:11:42;;;;;;;21.00;7.53;;;;;;;;;;5093984;28;20476;-74
2022/04/06 02:14:08;;;;;;;21.25;8.25;;;;;;;;;;5077040;28;20082;-72
2022/04/06 02:16:37;;;;;;;21.02;7.03;;;;;;;;;;5093732;28;20082;-76
2022/04/06 02:19:04;;;;;;;17.67;7.15;;;;;;;;;;5093503;28;20150;-72
2022/04/06 02:21:31;;;;;;;20.40;6.45;;;;;;;;;;5076505;28;20112;-73
2022/04/06 02:23:57;;;;;;;15.45;6.05;;;;;;;;;;5093504;28;20036;-73
2022/04/06 02:26:22;;;;;;;11.23;5.63;;;;;;;;;;5076883;28;20065;-74
2022/04/06 02:28:48;;;;;;;16.42;6.25;;;;;;;;;;5076819;28;20040;-73
2022/04/06 02:31:14;;;;;;;10.23;5.20;;;;;;;;;;5076544;28;20049;-74
2022/04/06 02:33:40;;;;;;;14.27;5.85;;;;;;;;;;5093330;28;20047;-72
2022/04/06 02:36:06;;;;;;;15.00;5.78;;;;;;;;;;5093076;28;20549;-72
2022/04/06 02:38:32;;;;;;;10.20;5.20;;;;;;;;;;5076588;28;20036;-74
2022/04/06 02:40:58;;;;;;;15.15;5.32;;;;;;;;;;5076182;28;20467;-73
2022/04/06 02:43:25;;;;;;;9.55;4.75;;;;;;;;;;5093234;28;20116;-74
2022/04/06 02:45:51;;;;;;;12.55;4.55;;;;;;;;;;5076602;28;20042;-74
2022/04/06 02:48:17;;;;;;;10.90;5.00;;;;;;;;;;5076651;28;20042;-72
2022/04/06 02:50:43;;;;;;;14.00;4.53;;;;;;;;;;5077859;28;20036;-73
2022/04/06 02:53:09;;;;;;;10.27;4.22;;;;;;;;;;5097266;28;20058;-72
2022/04/06 02:55:35;;;;;;;9.13;3.85;;;;;;;;;;5097061;28;20062;-72
2022/04/06 02:58:00;;;;;;;12.77;4.18;;;;;;;;;;5096951;28;20039;-75
2022/04/06 03:00:26;;;;;;;9.88;3.88;;;;;;;;;;5079941;28;20068;-72
2022/04/06 03:02:52;;;;;;;9.55;3.92;;;;;;;;;;5096714;28;20054;-74
2022/04/06 03:05:18;;;;;;;12.68;4.72;;;;;;;;;;5079928;28;20475;-76
2022/04/06 03:07:44;;;;;;;15.55;4.85;;;;;;;;;;5079925;28;20046;-71
2022/04/06 03:10:10;;;;;;;14.02;4.57;;;;;;;;;;5080051;28;20399;-74
2022/04/06 03:12:36;;;;;;;10.50;4.13;;;;;;;;;;5079977;28;20466;-76
2022/04/06 03:15:02;;;;;;;13.50;4.43;;;;;;;;;;5079944;28;20479;-73
2022/04/06 03:17:28;;;;;;;12.93;4.57;;;;;;;;;;5079944;28;20047;-74
2022/04/06 03:19:54;;;;;;;6.50;3.58;;;;;;;;;;5079578;28;20112;-73
2022/04/06 03:22:20;;;;;;;7.72;3.95;;;;;;;;;;5096572;28;20170;-73
2022/04/06 03:24:49;;;;;;;11.45;4.38;;;;;;;;;;5079630;28;20040;-71
2022/04/06 03:27:15;;;;;;;9.23;3.92;;;;;;;;;;5079841;28;20044;-74
2022/04/06 03:29:41;;;;;;;13.75;4.57;;;;;;;;;;5079390;28;20453;-72
2022/04/06 03:32:08;;;;;;;10.70;3.95;;;;;;;;;;5079410;28;20077;-75
2022/04/06 03:34:34;;;;;;;7.03;3.30;;;;;;;;;;5079741;28;20071;-72
2022/04/06 03:37:00;;;;;;;8.20;4.25;;;;;;;;;;5096387;28;20079;-75
2022/04/06 03:39:26;;;;;;;17.27;4.53;;;;;;;;;;5079581;28;20039;-74
2022/04/06 03:41:52;;;;;;;12.98;4.82;;;;;;;;;;5095837;28;20104;-72
2022/04/06 03:44:18;;;;;;;14.30;4.85;;;;;;;;;;5079153;28;20084;-78
2022/04/06 03:46:44;;;;;;;10.82;4.55;;;;;;;;;;5096262;28;20119;-76
2022/04/06 03:49:10;;;;;;;13.40;4.78;;;;;;;;;;5079311;28;20479;-73
2022/04/06 03:51:36;;;;;;;13.73;5.75;;;;;;;;;;5079159;28;20406;-77
2022/04/06 03:54:03;;;;;;;19.42;6.22;;;;;;;;;;5095861;28;20495;-75
2022/04/06 03:56:29;;;;;;;14.13;5.00;;;;;;;;;;5096048;28;20043;-74
2022/04/06 03:58:55;;;;;;;12.77;5.20;;;;;;;;;;5096163;28;20387;-77
2022/04/06 04:01:21;;;;;;;11.75;5.07;;;;;;;;;;5078508;28;20047;-76
2022/04/06 04:03:47;;;;;;;17.20;6.82;;;;;;;;;;5095704;28;20062;-74
2022/04/06 04:06:13;;;;;;;15.18;5.80;;;;;;;;;;5095872;28;20036;-73
2022/04/06 04:08:39;;;;;;;16.25;5.78;;;;;;;;;;5095672;28;20032;-72
2022/04/06 04:11:05;;;;;;;18.00;6.47;;;;;;;;;;5078535;28;20380;-72
2022/04/06 04:13:31;;;;;;;19.85;6.55;;;;;;;;;;5095376;28;20475;-77
2022/04/06 04:15:58;;;;;;;15.50;6.35;;;;;;;;;;5078741;28;20031;-76
2022/04/06 04:18:24;;;;;;;16.55;6.03;;;;;;;;;;5078583;28;20542;-74
2022/04/06 04:21:31;;;;;;;20.52;7.00;;;;;;;;;;5095569;28;20049;-75
2022/04/06 04:23:36;;;;;;;23.48;6.85;;;;;;;;;;5095192;28;20055;-74
2022/04/06 04:26:02;;;;;;;15.82;6.55;;;;;;;;;;5078675;28;20529;-73
2022/04/06 04:28:28;;;;;;;21.20;7.03;;;;;;;;;;5093775;28;20499;-74
2022/04/06 04:30:54;;;;;;;19.05;6.75;;;;;;;;;;5074706;28;20081;-73
2022/04/06 04:33:20;;;;;;;16.75;6.32;;;;;;;;;;5091500;28;20447;-73
2022/04/06 04:35:46;;;;;;;26.20;7.22;;;;;;;;;;5074678;28;20059;-74
2022/04/06 04:38:12;;;;;;;17.77;6.20;;;;;;;;;;5091407;28;20118;-74
2022/04/06 04:40:38;;;;;;;14.45;5.85;;;;;;;;;;5091677;28;20051;-74
2022/04/06 04:43:04;;;;;;;15.68;6.13;;;;;;;;;;5055753;28;20349;-70
2022/04/06 04:45:30;;;;;;;20.75;6.72;;;;;;;;;;5050430;28;20542;-73
2022/04/06 04:47:57;;;;;;;15.68;7.03;;;;;;;;;;5067658;28;20377;-73
2022/04/06 04:50:23;;;;;;;18.80;6.38;;;;;;;;;;5070588;28;20036;-73
2022/04/06 04:52:49;;;;;;;15.00;5.70;;;;;;;;;;5071007;28;20262;-77
2022/04/06 04:55:15;;;;;;;13.25;5.90;;;;;;;;;;5054227;28;20047;-72
2022/04/06 04:57:41;;;;;;;18.63;7.75;;;;;;;;;;5071126;28;20119;-76
2022/04/06 05:00:09;;;;;;;14.88;6.00;;;;;;;;;;5054691;28;20555;-74
2022/04/06 05:02:36;;;;;;;19.05;5.13;;;;;;;;;;5054327;28;20072;-72
2022/04/06 05:05:03;;;;;;;9.82;4.68;;;;;;;;;;5054242;28;20040;-74
2022/04/06 05:07:29;;;;;;;12.68;4.70;;;;;;;;;;5070771;28;20129;-77
2022/04/06 05:09:55;;;;;;;11.98;4.45;;;;;;;;;;5071010;28;20071;-72
2022/04/06 05:12:21;;;;;;;11.23;4.93;;;;;;;;;;5053827;28;20089;-74
2022/04/06 05:14:47;;;;;;;17.10;4.32;;;;;;;;;;5070611;28;20055;-76
2022/04/06 05:17:13;;;;;;;15.32;5.32;;;;;;;;;;5070754;28;20443;-75
2022/04/06 05:19:39;;;;;;;12.88;4.35;;;;;;;;;;5054221;28;20037;-75
2022/04/06 05:22:06;;;;;;;15.35;4.40;;;;;;;;;;5054014;28;20451;-76
2022/04/06 05:24:32;;;;;;;11.57;3.90;;;;;;;;;;5054042;28;20043;-75
2022/04/06 05:27:00;;;;;;;11.15;3.55;;;;;;;;;;5070941;28;20032;-78
2022/04/06 05:29:26;;;;;;;9.90;3.47;;;;;;;;;;5054158;28;20044;-77
2022/04/06 05:31:51;;;;;;;13.52;4.30;;;;;;;;;;5077888;28;20488;-75
2022/04/06 05:34:17;;;;;;;8.93;3.28;;;;;;;;;;5079612;28;20130;-77
2022/04/06 05:36:43;;;;;;;9.93;3.17;;;;;;;;;;5064266;28;20097;-75
2022/04/06 05:39:10;;;;;;;5.93;2.85;;;;;;;;;;5063429;28;20047;-75
2022/04/06 05:41:36;;;;;;;7.72;2.70;;;;;;;;;;5084913;27;20047;-75
2022/04/06 05:44:02;;;;;;;11.73;3.42;;;;;;;;;;5088344;27;20154;-71
2022/04/06 05:46:29;;;;;;;12.27;3.10;;;;;;;;;;5104134;27;20036;-75
2022/04/06 05:48:55;;;;;;;7.78;2.38;;;;;;;;;;5103721;28;20084;-75
2022/04/06 05:51:21;;;;;;;12.07;3.03;;;;;;;;;;5102445;27;20165;-77
2022/04/06 05:53:47;;;;;;;7.03;2.90;;;;;;;;;;5102664;28;20035;-76
2022/04/06 05:56:13;;;;;;;7.38;2.78;;;;;;;;;;5103183;28;20434;-75
2022/04/06 05:58:40;;;;;;;8.35;2.50;;;;;;;;;;5104579;27;20038;-74
2022/04/06 06:01:06;;;;;;;4.72;2.40;;;;;;;;;;5105446;28;20513;-75
2022/04/06 06:03:32;;;;;;;6.82;2.05;;;;;;;;;;5114263;28;20027;-74
2022/04/06 06:05:58;;;;;;;8.80;3.60;;;;;;;;;;5114105;28;20071;-74
2022/04/06 06:08:24;;;;;;;7.82;2.17;;;;;;;;;;5114212;28;20093;-76
2022/04/06 06:10:50;;;;;;;5.53;2.92;;;;;;;;;;5114304;28;20095;-76
2022/04/06 06:13:16;;;;;;;5.70;2.33;;;;;;;;;;5114372;28;20117;-73
2022/04/06 06:15:42;;;;;;;8.75;2.85;;;;;;;;;;5113903;28;20478;-75
2022/04/06 06:18:11;;;;;;;7.47;2.47;;;;;;;;;;5114114;28;20114;-73
2022/04/06 06:20:37;;;;;;;9.48;2.65;;;;;;;;;;5114159;28;20505;-74
2022/04/06 06:23:03;;;;;;;8.38;2.10;;;;;;;;;;5113931;28;20039;-75
2022/04/06 06:25:29;;;;;;;8.38;2.80;;;;;;;;;;5116942;27;20510;-75
2022/04/06 06:27:55;;;;;;;5.15;2.95;;;;;;;;;;5118235;27;20495;-75
2022/04/06 06:30:21;;;;;;;10.57;2.90;;;;;;;;;;5118274;27;20042;-72
2022/04/06 06:32:47;;;;;;;10.30;3.00;;;;;;;;;;5118283;27;20082;-76
2022/04/06 06:35:13;;;;;;;9.50;3.40;;;;;;;;;;5118219;27;20436;-73
2022/04/06 06:37:46;;;;;;;5.63;2.08;;;;;;;;;;5118034;27;20043;-73
2022/04/06 06:40:13;;;;;;;7.68;2.80;;;;;;;;;;5117640;27;20039;-74
2022/04/06 06:42:39;;;;;;;3.97;2.10;;;;;;;;;;5117402;27;20051;-76
2022/04/06 06:45:05;;;;;;;8.05;2.88;;;;;;;;;;5117437;27;20392;-76
2022/04/06 06:47:31;;;;;;;4.88;2.50;;;;;;;;;;5117520;27;20380;-76
2022/04/06 06:49:57;;;;;;;10.00;2.80;;;;;;;;;;5118025;27;20039;-75
2022/04/06 06:52:23;;;;;;;8.25;1.65;;;;;;;;;;5117519;27;20051;-73
2022/04/06 06:54:48;;;;;;;6.53;2.25;;;;;;;;;;5117638;27;20039;-71
2022/04/06 06:57:14;;;;;;;5.05;1.95;;;;;;;;;;5117736;27;20043;-73
2022/04/06 06:59:41;;;;;;;3.78;2.00;;;;;;;;;;5117529;27;20042;-74
2022/04/06 07:02:08;;;;;;;4.75;2.90;;;;;;;;;;5117591;27;20045;-76
2022/04/06 07:04:34;;;;;;;6.60;2.22;;;;;;;;;;5117326;27;20035;-76
2022/04/06 07:07:00;;;;;;;5.47;2.25;;;;;;;;;;5117634;27;20138;-76
2022/04/06 07:09:26;;;;;;;8.02;2.40;;;;;;;;;;5117454;27;20088;-77
2022/04/06 07:11:52;;;;;;;5.53;2.17;;;;;;;;;;5117112;27;20133;-74
2022/04/06 07:14:18;;;;;;;6.28;2.78;;;;;;;;;;5117338;27;20039;-74
2022/04/06 07:16:44;;;;;;;11.50;2.80;;;;;;;;;;5117143;27;20043;-76
2022/04/06 07:19:10;;;;;;;9.25;2.78;;;;;;;;;;5117488;27;20077;-73
2022/04/06 07:21:36;;;;;;;5.15;2.70;;;;;;;;;;5117053;27;20039;-79
2022/04/06 07:24:03;;;;;;;8.05;2.30;;;;;;;;;;5117078;27;20035;-75
2022/04/06 07:26:29;;;;;;;7.50;2.55;;;;;;;;;;5117400;27;20039;-75
2022/04/06 07:28:55;;;;;;;8.93;2.70;;;;;;;;;;5117240;27;20095;-75
2022/04/06 07:31:21;;;;;;;4.53;2.65;;;;;;;;;;5116999;27;20522;-74
2022/04/06 07:33:47;;;;;;;8.07;2.45;;;;;;;;;;5116658;27;20105;-74
2022/04/06 07:36:17;;;;;;;8.02;2.88;;;;;;;;;;5116126;27;20043;-72
2022/04/06 07:38:43;;;;;;;3.95;1.90;;;;;;;;;;5116838;27;20054;-75
2022/04/06 07:41:09;;;;;;;6.82;2.78;;;;;;;;;;5116683;27;20440;-72
2022/04/06 07:43:36;;;;;;;9.00;2.75;;;;;;;;;;5116310;27;20146;-76
2022/04/06 07:46:02;;;;;;;6.75;2.47;;;;;;;;;;5116810;27;20071;-75
2022/04/06 07:48:30;;;;;;;7.32;2.60;;;;;;;;;;5116639;27;20081;-75
2022/04/06 07:50:56;;;;;;;6.03;2.25;;;;;;;;;;5116777;27;20047;-75
2022/04/06 07:53:22;;;;;;;7.03;2.80;;;;;;;;;;5116761;27;20046;-74
2022/04/06 07:55:49;;;;;;;6.70;2.85;;;;;;;;;;5116008;27;20043;-75
2022/04/06 07:58:15;;;;;;;7.63;3.10;;;;;;;;;;5102030;27;20506;-75
2022/04/06 08:00:41;;;;;;;9.07;2.92;;;;;;;;;;5104963;27;20035;-72
2022/04/06 08:03:07;;;;;;;9.35;2.58;;;;;;;;;;5086981;28;20089;-72
2022/04/06 08:05:35;;;;;;;4.05;2.75;;;;;;;;;;5104342;28;20130;-72
2022/04/06 08:08:01;;;;;;;5.28;2.75;;;;;;;;;;5089430;27;20451;-75
2022/04/06 08:10:30;;;;;;;7.70;3.40;;;;;;;;;;5104579;27;20506;-76
2022/04/06 08:12:56;;;;;;;7.30;2.80;;;;;;;;;;5105328;27;20091;-72
2022/04/06 08:15:22;;;;;;;11.45;3.05;;;;;;;;;;5106380;27;20048;-74
2022/04/06 08:17:49;;;;;;;8.55;2.70;;;;;;;;;;5104317;27;20032;-75
2022/04/06 08:20:16;;;;;;;5.32;3.25;;;;;;;;;;5105728;27;20091;-72
2022/04/06 08:22:43;;;;;;;9.85;3.22;;;;;;;;;;5089261;27;20069;-73
2022/04/06 08:25:13;;;;;;;7.13;2.78;;;;;;;;;;5101837;27;20032;-74
2022/04/06 08:27:42;;;;;;;6.10;2.53;;;;;;;;;;5104345;27;20386;-74
2022/04/06 08:30:12;;;;;;;9.93;3.38;;;;;;;;;;5096485;27;20437;-75
2022/04/06 08:32:38;;;;;;;6.07;2.85;;;;;;;;;;5104049;27;20495;-75
2022/04/06 08:35:05;;;;;;;13.80;4.32;;;;;;;;;;5104011;27;20047;-73
2022/04/06 08:37:31;;;;;;;9.50;3.78;;;;;;;;;;5103959;27;20497;-73
2022/04/06 08:40:03;;;;;;;9.13;3.83;;;;;;;;;;5099761;27;20060;-72
2022/04/06 08:42:32;;;;;;;14.25;3.83;;;;;;;;;;5102597;27;20101;-76
2022/04/06 08:45:01;;;;;;;5.57;3.33;;;;;;;;;;5088911;27;20075;-74
2022/04/06 08:47:31;;;;;;;12.13;3.58;;;;;;;;;;5102933;28;20506;-75
2022/04/06 08:49:57;;;;;;;4.80;2.88;;;;;;;;;;5104579;27;20513;-76
2022/04/06 08:52:23;;;;;;;8.02;3.47;;;;;;;;;;5105901;27;20488;-73
2022/04/06 08:54:49;;;;;;;8.85;3.15;;;;;;;;;;5081525;27;20126;-74
2022/04/06 08:57:17;;;;;;;6.40;3.40;;;;;;;;;;5101252;27;20126;-75
2022/04/06 08:59:43;;;;;;;6.60;2.88;;;;;;;;;;5084945;27;20043;-71
2022/04/06 09:02:10;;;;;;;7.90;2.90;;;;;;;;;;5101843;27;20050;-75
2022/04/06 09:04:39;;;;;;;10.88;3.42;;;;;;;;;;5084409;27;20070;-72
2022/04/06 09:07:09;;;;;;;9.25;3.13;;;;;;;;;;5100198;28;20463;-74
2022/04/06 09:09:35;;;;;;;6.82;2.90;;;;;;;;;;5102661;27;20042;-74
2022/04/06 09:12:06;;;;;;;7.35;3.20;;;;;;;;;;5100919;27;20050;-72
2022/04/06 09:14:33;;;;;;;6.00;3.25;;;;;;;;;;5082076;27;20433;-73
2022/04/06 09:17:06;;;;;;;9.60;3.10;;;;;;;;;;5097572;27;20108;-72
2022/04/06 09:19:36;;;;;;;9.10;3.58;;;;;;;;;;5081304;27;20070;-75
2022/04/06 09:22:05;;;;;;;11.90;3.60;;;;;;;;;;5082217;27;20078;-73
2022/04/06 09:24:31;;;;;;;9.27;3.30;;;;;;;;;;5097904;27;20031;-76
2022/04/06 09:26:58;;;;;;;6.57;3.15;;;;;;;;;;5100603;27;20403;-76
2022/04/06 09:29:24;;;;;;;10.40;3.30;;;;;;;;;;5099767;27;20147;-75
2022/04/06 09:31:50;;;;;;;9.60;3.33;;;;;;;;;;5101517;27;20126;-72
2022/04/06 09:34:16;;;;;;;7.90;2.65;;;;;;;;;;5083421;27;20035;-75
2022/04/06 09:36:42;;;;;;;3.97;2.58;;;;;;;;;;5099799;27;20065;-75
2022/04/06 09:39:08;;;;;;;7.15;2.90;;;;;;;;;;5102073;27;20049;-74
2022/04/06 09:41:54;;;;;;;8.30;3.58;;;;;;;;;;5082939;27;20122;-77
2022/04/06 09:50:14;;;;;;;7.90;2.90;;;;;;;;;;5070574;28;20403;-74
2022/04/06 09:52:40;;;;;;;;;;;;;;;;;;5070763;28;20051;-75
2022/04/06 09:55:07;;;;;;;10.07;2.72;;;;;;;;;;5086799;28;19942;-73
2022/04/06 09:57:47;;;;;;;5.90;2.65;;;;;;;;;;5070165;28;20044;-73
2022/04/06 10:00:18;;;;;;;3.20;2.90;;;;;;;;;;5053056;28;20586;-76
2022/04/06 10:02:45;;;;;;;5.40;2.70;;;;;;;;;;5053728;28;20391;-75
2022/04/06 10:05:12;;;;;;;8.40;2.97;;;;;;;;;;5053424;28;20055;-77
2022/04/06 10:07:43;;;;;;;8.20;3.35;;;;;;;;;;5069903;28;20047;-76
2022/04/06 10:10:09;;;;;;;7.43;3.63;;;;;;;;;;5053612;28;20395;-74
2022/04/06 10:12:35;;;;;;;9.75;3.45;;;;;;;;;;5070062;28;20051;-73
2022/04/06 10:15:05;;;;;;;6.32;3.25;;;;;;;;;;5070749;28;20127;-71
2022/04/06 10:17:32;;;;;;;7.05;3.33;;;;;;;;;;5070337;28;20144;-77
2022/04/06 10:20:14;;;;;;;12.00;3.70;;;;;;;;;;5053378;28;20044;-73
2022/04/06 10:22:46;;;;;;;13.68;3.78;;;;;;;;;;5053213;28;20043;-76
2022/04/06 10:25:15;;;;;;;6.40;3.35;;;;;;;;;;5070048;28;20404;-76
2022/04/06 10:27:43;;;;;;;7.55;3.20;;;;;;;;;;5070072;28;20079;-75
2022/04/06 10:30:17;;;;;;;9.88;3.97;;;;;;;;;;5078575;28;20027;-74
2022/04/06 10:32:46;;;;;;;8.80;3.65;;;;;;;;;;5099970;28;20495;-72
2022/04/06 10:35:28;;;;;;;10.52;4.03;;;;;;;;;;5095559;28;20045;-75
2022/04/06 10:37:57;;;;;;;11.55;4.25;;;;;;;;;;5079007;28;20039;-76
2022/04/06 10:40:24;;;;;;;9.68;3.95;;;;;;;;;;5095933;28;20047;-74
2022/04/06 10:42:50;;;;;;;11.48;3.90;;;;;;;;;;5089673;28;20051;-73
2022/04/06 10:45:29;;;;;;;3.78;3.17;;;;;;;;;;5089810;28;20073;-75
2022/04/06 10:48:14;;;;;;;8.90;3.95;;;;;;;;;;5089884;28;20499;-74
2022/04/06 10:50:44;;;;;;;9.05;4.00;;;;;;;;;;5073274;28;20043;-75
2022/04/06 10:53:22;;;;;;;8.02;4.20;;;;;;;;;;5073136;28;20047;-77
2022/04/06 10:56:17;;;;;;;11.57;4.82;;;;;;;;;;5089476;28;20101;-73
2022/04/06 10:58:58;;;;;;;10.73;4.70;;;;;;;;;;5073285;28;20046;-75
2022/04/06 11:01:29;;;;;;;15.02;4.80;;;;;;;;;;5089668;28;20048;-74
2022/04/06 11:04:03;;;;;;;;;;;;;;;;;;5090441;28;20542;-73
2022/04/06 11:06:44;;;;;;;11.85;4.82;;;;;;;;;;5072741;28;20510;-72
2022/04/06 11:12:18;;;;;;;10.45;4.45;;;;;;;;;;5091364;28;20036;-74
2022/04/06 11:14:45;;;;;;;9.27;4.18;;;;;;;;;;5076535;28;20173;-75
2022/04/06 11:17:42;;;;;;;8.07;4.22;;;;;;;;;;5076707;28;20050;-75
2022/04/06 11:20:11;;;;;;;11.57;4.78;;;;;;;;;;5093140;28;20046;-72
2022/04/06 11:22:38;;;;;;;8.80;4.97;;;;;;;;;;5076155;28;20162;-73
2022/04/06 11:25:08;;;;;;;18.92;4.75;;;;;;;;;;5076187;28;20131;-77
2022/04/06 11:27:35;;;;;;;10.07;4.45;;;;;;;;;;5076527;28;20077;-74
2022/04/06 11:30:02;;;;;;;11.60;4.47;;;;;;;;;;5093039;28;20167;-72
2022/04/06 11:32:29;;;;;;;10.93;2.95;;;;;;;;;;5093082;28;20134;-71
2022/04/06 11:35:02;;;;;;;34.20;4.68;;;;;;;;;;5075699;28;20107;-74
2022/04/06 11:37:28;;;;;;;6.72;4.25;;;;;;;;;;5092891;28;20162;-77
2022/04/06 11:40:00;;;;;;;10.05;4.55;;;;;;;;;;5075993;28;20585;-76
2022/04/06 11:42:27;;;;;;;8.30;4.32;;;;;;;;;;5092104;28;20047;-77
2022/04/06 11:44:56;;;;;;;9.15;4.30;;;;;;;;;;5075865;28;20380;-73
2022/04/06 11:47:36;;;;;;;11.00;5.05;;;;;;;;;;5075422;28;20043;-73
2022/04/06 11:50:03;;;;;;;8.85;4.45;;;;;;;;;;5075906;28;20046;-74
2022/04/06 11:52:29;;;;;;;8.65;4.90;;;;;;;;;;5092973;28;20131;-78
2022/04/06 11:54:56;;;;;;;5.95;4.50;;;;;;;;;;5077022;28;20134;-74
2022/04/06 11:57:32;;;;;;;9.90;5.07;;;;;;;;;;5079394;28;20045;-76
2022/04/06 11:59:58;;;;;;;8.88;4.88;;;;;;;;;;5079010;27;20036;-76
2022/04/06 12:02:24;;;;;;;7.97;5.28;;;;;;;;;;5078413;28;20091;-75
2022/04/06 12:05:00;;;;;;;9.82;5.07;;;;;;;;;;5096048;28;20036;-72
2022/04/06 12:07:26;;;;;;;7.85;4.38;;;;;;;;;;5079126;28;20648;-76
2022/04/06 12:09:53;;;;;;;7.78;4.32;;;;;;;;;;5079112;28;20046;-76
2022/04/06 12:12:19;;;;;;;10.10;5.53;;;;;;;;;;5095904;28;20543;-75
2022/04/06 12:14:45;;;;;;;7.82;4.82;;;;;;;;;;5095466;28;20077;-75
2022/04/06 12:17:14;;;;;;;8.35;4.30;;;;;;;;;;5079374;28;20054;-76
2022/04/06 12:19:42;;;;;;;11.73;4.07;;;;;;;;;;5095730;28;20100;-77
2022/04/06 12:22:08;;;;;;;7.63;3.78;;;;;;;;;;5095584;28;20134;-76
2022/04/06 12:24:38;;;;;;;7.93;4.82;;;;;;;;;;5095933;28;20028;-75
2022/04/06 12:27:04;;;;;;;9.13;4.00;;;;;;;;;;5095741;28;20047;-76
2022/04/06 12:29:35;;;;;;;6.20;4.00;;;;;;;;;;5078374;28;20052;-77
2022/04/06 12:32:01;;;;;;;8.38;4.63;;;;;;;;;;5090562;27;20031;-75
2022/04/06 12:34:28;;;;;;;9.20;4.47;;;;;;;;;;5106994;27;20509;-74
2022/04/06 12:36:54;;;;;;;11.63;4.78;;;;;;;;;;5104278;27;20118;-77
2022/04/06 12:39:20;;;;;;;6.43;4.38;;;;;;;;;;5105448;27;20067;-75
2022/04/06 12:41:56;;;;;;;6.75;4.22;;;;;;;;;;5088010;27;20391;-75
2022/04/06 12:44:23;;;;;;;7.90;4.95;;;;;;;;;;5084123;27;20043;-75
2022/04/06 12:46:49;;;;;;;7.60;4.25;;;;;;;;;;5088936;27;20035;-76
2022/04/06 12:49:37;;;;;;;7.18;4.78;;;;;;;;;;5089153;27;20043;-73
2022/04/06 12:52:03;;;;;;;11.85;4.43;;;;;;;;;;5084546;27;20047;-75
2022/04/06 12:54:33;;;;;;;4.93;3.97;;;;;;;;;;5101015;27;20460;-77
2022/04/06 12:57:22;;;;;;;9.30;4.32;;;;;;;;;;5099614;27;20147;-79
2022/04/06 12:59:54;;;;;;;11.40;4.45;;;;;;;;;;5073342;27;20046;-76
2022/04/06 13:02:21;;;;;;;6.05;4.60;;;;;;;;;;5110240;27;20035;-75
2022/04/06 13:04:48;;;;;;;16.55;5.22;;;;;;;;;;5115885;27;20039;-80
2022/04/06 13:07:14;;;;;;;9.55;4.03;;;;;;;;;;5109788;28;20038;-78
2022/04/06 13:09:50;;;;;;;7.68;4.32;;;;;;;;;;5107512;27;20032;-79
2022/04/06 13:12:16;;;;;;;8.73;4.45;;;;;;;;;;5104138;28;20036;-77
2022/04/06 13:14:42;;;;;;;19.20;4.75;;;;;;;;;;5105481;27;20031;-78
2022/04/06 13:17:08;;;;;;;9.80;4.28;;;;;;;;;;5105837;27;20465;-77
2022/04/06 13:19:34;;;;;;;9.30;3.97;;;;;;;;;;5089029;27;20042;-78
2022/04/06 13:22:00;;;;;;;8.65;4.20;;;;;;;;;;5086975;27;20032;-79
2022/04/06 13:24:26;;;;;;;6.93;3.78;;;;;;;;;;5104636;27;20509;-74
2022/04/06 13:26:52;;;;;;;10.27;3.65;;;;;;;;;;5088569;27;20066;-79
2022/04/06 13:29:18;;;;;;;13.50;4.35;;;;;;;;;;5100650;27;20035;-75
2022/04/06 13:31:44;;;;;;;10.95;4.03;;;;;;;;;;5106437;27;20062;-74
2022/04/06 13:34:12;;;;;;;11.13;4.28;;;;;;;;;;5102940;27;20130;-75
2022/04/06 13:36:40;;;;;;;6.97;3.92;;;;;;;;;;5083948;27;20043;-74
2022/04/06 13:39:06;;;;;;;10.20;3.97;;;;;;;;;;5104230;27;20043;-77
2022/04/06 13:41:32;;;;;;;8.60;4.18;;;;;;;;;;5088272;27;20130;-74
2022/04/06 13:43:58;;;;;;;9.43;5.03;;;;;;;;;;5082910;28;20052;-77
2022/04/06 13:46:24;;;;;;;7.05;3.60;;;;;;;;;;5066742;28;20051;-76
2022/04/06 13:48:51;;;;;;;6.25;4.32;;;;;;;;;;5080898;28;20032;-76
2022/04/06 13:51:18;;;;;;;8.60;4.80;;;;;;;;;;5056395;28;20032;-71
2022/04/06 13:53:45;;;;;;;7.28;4.47;;;;;;;;;;5053871;28;20040;-74
2022/04/06 13:56:10;;;;;;;8.88;4.80;;;;;;;;;;5050975;28;20123;-77
2022/04/06 13:58:36;;;;;;;11.77;5.40;;;;;;;;;;5050468;28;20595;-78
2022/04/06 14:01:03;;;;;;;9.95;4.40;;;;;;;;;;5050274;28;20045;-76
2022/04/06 14:03:29;;;;;;;8.60;4.57;;;;;;;;;;5066889;28;20040;-77
2022/04/06 14:05:55;;;;;;;7.00;4.22;;;;;;;;;;5066765;28;20070;-74
2022/04/06 14:08:27;;;;;;;8.02;5.00;;;;;;;;;;5050230;28;20040;-77
2022/04/06 14:10:53;;;;;;;14.77;5.63;;;;;;;;;;5050436;28;20127;-75
2022/04/06 14:13:21;;;;;;;9.15;5.35;;;;;;;;;;5049828;28;20143;-76
2022/04/06 14:15:47;;;;;;;9.55;5.38;;;;;;;;;;5050087;28;20040;-77
2022/04/06 14:18:13;;;;;;;6.65;4.68;;;;;;;;;;5050257;28;20538;-79
2022/04/06 14:20:39;;;;;;;12.68;5.60;;;;;;;;;;5066685;28;20044;-75
2022/04/06 14:23:06;;;;;;;8.77;4.78;;;;;;;;;;5051588;28;20450;-77
2022/04/06 14:25:32;;;;;;;7.22;4.45;;;;;;;;;;5049637;28;20071;-77
2022/04/06 14:27:58;;;;;;;11.15;4.50;;;;;;;;;;5050339;28;20091;-77
2022/04/06 14:30:24;;;;;;;5.47;3.83;;;;;;;;;;5068024;28;20693;-78
2022/04/06 14:32:51;;;;;;;4.07;2.95;;;;;;;;;;5052441;28;20040;-76
2022/04/06 14:35:21;;;;;;;4.47;2.80;;;;;;;;;;5051056;28;20098;-76
2022/04/06 14:37:48;;;;;;;6.20;2.38;;;;;;;;;;5049784;28;20090;-76
2022/04/06 14:40:14;;;;;;;3.15;1.80;;;;;;;;;;5049765;28;20087;-76
2022/04/06 14:42:41;;;;;;;1.63;1.38;;;;;;;;;;5075377;28;20062;-77
2022/04/06 14:45:08;;;;;;;0.95;0.90;;;;;;;;;;5090154;28;20537;-77
2022/04/06 14:47:34;;;;;;;2.08;1.10;;;;;;;;;;5093851;28;20038;-78
2022/04/06 14:50:00;;;;;;;7.90;1.35;;;;;;;;;;5076831;28;20036;-78
2022/04/06 14:52:26;;;;;;;0.68;0.68;;;;;;;;;;5094155;28;20047;-75